sensor_id;sensor_type;location;lat;lon;timestamp;P1;durP1;ratioP1;P2;durP2;ratioP2
26113;SDS011;13966;48.828;9.064;2024-01-30T00:01:30;19.15;;;9.57;;
26113;SDS011;13966;48.828;9.064;2024-01-30T00:03:56;20.58;;;10.23;;
26113;SDS011;13966;48.828;9.064;2024-01-30T00:06:22;18.70;;;10.07;;
26113;SDS011;13966;48.828;9.064;2024-01-30T00:08:48;20.77;;;10.15;;
26113;SDS011;13966;48.828;9.064;2024-01-30T00:11:15;15.30;;;9.35;;
26113;SDS011;13966;48.828;9.064;2024-01-30T00:13:41;18.08;;;10.27;;
26113;SDS011;13966;48.828;9.064;2024-01-30T00:16:07;16.92;;;9.43;;
26113;SDS011;13966;48.828;9.064;2024-01-30T00:18:34;20.67;;;10.65;;
26113;SDS011;13966;48.828;9.064;2024-01-30T00:21:00;16.17;;;9.80;;
26113;SDS011;13966;48.828;9.064;2024-01-30T00:23:26;17.15;;;10.30;;
26113;SDS011;13966;48.828;9.064;2024-01-30T00:25:52;20.25;;;10.63;;
26113;SDS011;13966;48.828;9.064;2024-01-30T00:28:18;18.35;;;10.07;;
26113;SDS011;13966;48.828;9.064;2024-01-30T00:30:44;19.73;;;9.90;;
26113;SDS011;13966;48.828;9.064;2024-01-30T00:33:10;17.63;;;9.30;;
26113;SDS011;13966;48.828;9.064;2024-01-30T00:35:36;21.25;;;10.35;;
26113;SDS011;13966;48.828;9.064;2024-01-30T00:38:02;19.60;;;10.30;;
26113;SDS011;13966;48.828;9.064;2024-01-30T00:40:28;18.77;;;10.98;;
26113;SDS011;13966;48.828;9.064;2024-01-30T00:42:54;23.92;;;11.80;;
26113;SDS011;13966;48.828;9.064;2024-01-30T00:45:20;24.52;;;12.02;;
26113;SDS011;13966;48.828;9.064;2024-01-30T00:47:46;22.25;;;12.20;;
26113;SDS011;13966;48.828;9.064;2024-01-30T00:50:12;24.88;;;12.25;;
26113;SDS011;13966;48.828;9.064;2024-01-30T00:52:38;22.65;;;11.60;;
26113;SDS011;13966;48.828;9.064;2024-01-30T00:55:05;20.95;;;11.23;;
26113;SDS011;13966;48.828;9.064;2024-01-30T00:57:31;22.75;;;11.35;;
26113;SDS011;13966;48.828;9.064;2024-01-30T00:59:57;19.52;;;10.63;;
26113;SDS011;13966;48.828;9.064;2024-01-30T01:02:23;22.05;;;11.93;;
26113;SDS011;13966;48.828;9.064;2024-01-30T01:04:49;20.27;;;11.52;;
26113;SDS011;13966;48.828;9.064;2024-01-30T01:07:15;23.75;;;11.00;;
26113;SDS011;13966;48.828;9.064;2024-01-30T01:09:41;19.98;;;11.77;;
26113;SDS011;13966;48.828;9.064;2024-01-30T01:12:07;20.33;;;11.43;;
26113;SDS011;13966;48.828;9.064;2024-01-30T01:14:33;19.83;;;11.20;;
26113;SDS011;13966;48.828;9.064;2024-01-30T01:16:59;23.00;;;11.23;;
26113;SDS011;13966;48.828;9.064;2024-01-30T01:19:25;25.30;;;11.82;;
26113;SDS011;13966;48.828;9.064;2024-01-30T01:21:51;21.65;;;11.35;;
26113;SDS011;13966;48.828;9.064;2024-01-30T01:24:18;19.15;;;10.43;;
26113;SDS011;13966;48.828;9.064;2024-01-30T01:26:44;19.65;;;10.85;;
26113;SDS011;13966;48.828;9.064;2024-01-30T01:29:10;19.23;;;10.70;;
26113;SDS011;13966;48.828;9.064;2024-01-30T01:31:37;20.58;;;11.20;;
26113;SDS011;13966;48.828;9.064;2024-01-30T01:34:08;17.92;;;9.70;;
26113;SDS011;13966;48.828;9.064;2024-01-30T01:36:34;16.42;;;9.23;;
26113;SDS011;13966;48.828;9.064;2024-01-30T01:39:00;21.65;;;8.45;;
26113;SDS011;13966;48.828;9.064;2024-01-30T01:41:31;17.20;;;9.00;;
26113;SDS011;13966;48.828;9.064;2024-01-30T01:43:57;17.85;;;9.13;;
26113;SDS011;13966;48.828;9.064;2024-01-30T01:46:23;16.15;;;8.80;;
26113;SDS011;13966;48.828;9.064;2024-01-30T01:48:49;14.95;;;8.20;;
26113;SDS011;13966;48.828;9.064;2024-01-30T01:51:15;17.50;;;8.75;;
26113;SDS011;13966;48.828;9.064;2024-01-30T01:53:41;17.60;;;8.98;;
26113;SDS011;13966;48.828;9.064;2024-01-30T01:56:07;16.85;;;9.70;;
26113;SDS011;13966;48.828;9.064;2024-01-30T01:58:34;18.13;;;9.43;;
26113;SDS011;13966;48.828;9.064;2024-01-30T02:01:01;17.67;;;9.45;;
26113;SDS011;13966;48.828;9.064;2024-01-30T02:03:27;17.33;;;9.40;;
26113;SDS011;13966;48.828;9.064;2024-01-30T02:05:53;18.35;;;9.60;;
26113;SDS011;13966;48.828;9.064;2024-01-30T02:08:20;18.13;;;10.00;;
26113;SDS011;13966;48.828;9.064;2024-01-30T02:10:46;20.17;;;9.50;;
26113;SDS011;13966;48.828;9.064;2024-01-30T02:13:12;16.35;;;8.73;;
26113;SDS011;13966;48.828;9.064;2024-01-30T02:15:38;19.75;;;9.15;;
26113;SDS011;13966;48.828;9.064;2024-01-30T02:18:04;14.40;;;8.57;;
26113;SDS011;13966;48.828;9.064;2024-01-30T02:20:30;18.20;;;9.38;;
26113;SDS011;13966;48.828;9.064;2024-01-30T02:22:57;19.33;;;10.05;;
26113;SDS011;13966;48.828;9.064;2024-01-30T02:25:38;15.23;;;9.32;;
26113;SDS011;13966;48.828;9.064;2024-01-30T02:28:09;17.58;;;9.63;;
26113;SDS011;13966;48.828;9.064;2024-01-30T02:30:35;16.00;;;9.55;;
26113;SDS011;13966;48.828;9.064;2024-01-30T02:33:01;20.70;;;9.82;;
26113;SDS011;13966;48.828;9.064;2024-01-30T02:35:27;18.75;;;9.55;;
26113;SDS011;13966;48.828;9.064;2024-01-30T02:37:53;20.67;;;9.63;;
26113;SDS011;13966;48.828;9.064;2024-01-30T02:40:19;16.05;;;9.13;;
26113;SDS011;13966;48.828;9.064;2024-01-30T02:42:45;14.75;;;9.45;;
26113;SDS011;13966;48.828;9.064;2024-01-30T02:45:11;15.73;;;9.75;;
26113;SDS011;13966;48.828;9.064;2024-01-30T02:47:38;16.63;;;9.38;;
26113;SDS011;13966;48.828;9.064;2024-01-30T02:50:04;18.50;;;10.05;;
26113;SDS011;13966;48.828;9.064;2024-01-30T02:52:30;17.85;;;10.00;;
26113;SDS011;13966;48.828;9.064;2024-01-30T02:54:56;17.40;;;8.85;;
26113;SDS011;13966;48.828;9.064;2024-01-30T02:57:22;15.52;;;8.75;;
26113;SDS011;13966;48.828;9.064;2024-01-30T02:59:48;19.50;;;9.75;;
26113;SDS011;13966;48.828;9.064;2024-01-30T03:02:14;17.00;;;9.77;;
26113;SDS011;13966;48.828;9.064;2024-01-30T03:04:41;14.70;;;9.02;;
26113;SDS011;13966;48.828;9.064;2024-01-30T03:07:07;17.48;;;9.80;;
26113;SDS011;13966;48.828;9.064;2024-01-30T03:09:33;16.63;;;8.80;;
26113;SDS011;13966;48.828;9.064;2024-01-30T03:11:59;18.55;;;9.10;;
26113;SDS011;13966;48.828;9.064;2024-01-30T03:14:25;15.95;;;9.07;;
26113;SDS011;13966;48.828;9.064;2024-01-30T03:16:52;14.85;;;9.18;;
26113;SDS011;13966;48.828;9.064;2024-01-30T03:19:17;16.98;;;9.57;;
26113;SDS011;13966;48.828;9.064;2024-01-30T03:21:43;18.73;;;9.65;;
26113;SDS011;13966;48.828;9.064;2024-01-30T03:24:09;17.60;;;9.55;;
26113;SDS011;13966;48.828;9.064;2024-01-30T03:26:35;19.17;;;9.80;;
26113;SDS011;13966;48.828;9.064;2024-01-30T03:29:01;14.27;;;8.90;;
26113;SDS011;13966;48.828;9.064;2024-01-30T03:31:27;16.38;;;8.82;;
26113;SDS011;13966;48.828;9.064;2024-01-30T03:33:53;16.95;;;8.93;;
26113;SDS011;13966;48.828;9.064;2024-01-30T03:36:19;15.50;;;9.65;;
26113;SDS011;13966;48.828;9.064;2024-01-30T03:38:45;16.42;;;8.43;;
26113;SDS011;13966;48.828;9.064;2024-01-30T03:41:11;16.45;;;8.77;;
26113;SDS011;13966;48.828;9.064;2024-01-30T03:43:37;16.58;;;9.45;;
26113;SDS011;13966;48.828;9.064;2024-01-30T03:46:03;15.55;;;8.32;;
26113;SDS011;13966;48.828;9.064;2024-01-30T03:48:29;17.08;;;9.35;;
26113;SDS011;13966;48.828;9.064;2024-01-30T03:50:55;16.20;;;8.95;;
26113;SDS011;13966;48.828;9.064;2024-01-30T03:53:21;13.98;;;8.88;;
26113;SDS011;13966;48.828;9.064;2024-01-30T03:55:48;13.70;;;8.73;;
26113;SDS011;13966;48.828;9.064;2024-01-30T03:58:14;16.73;;;9.10;;
26113;SDS011;13966;48.828;9.064;2024-01-30T04:00:39;14.02;;;8.77;;
26113;SDS011;13966;48.828;9.064;2024-01-30T04:03:06;15.18;;;8.63;;
26113;SDS011;13966;48.828;9.064;2024-01-30T04:05:32;13.93;;;8.68;;
26113;SDS011;13966;48.828;9.064;2024-01-30T04:07:58;14.75;;;8.32;;
26113;SDS011;13966;48.828;9.064;2024-01-30T04:10:24;16.38;;;8.63;;
26113;SDS011;13966;48.828;9.064;2024-01-30T04:12:50;14.68;;;7.95;;
26113;SDS011;13966;48.828;9.064;2024-01-30T04:15:19;14.85;;;7.82;;
26113;SDS011;13966;48.828;9.064;2024-01-30T04:17:45;18.75;;;9.30;;
26113;SDS011;13966;48.828;9.064;2024-01-30T04:20:14;20.55;;;10.05;;
26113;SDS011;13966;48.828;9.064;2024-01-30T04:22:42;17.45;;;9.60;;
26113;SDS011;13966;48.828;9.064;2024-01-30T04:25:09;19.10;;;10.55;;
26113;SDS011;13966;48.828;9.064;2024-01-30T04:27:35;16.50;;;9.10;;
26113;SDS011;13966;48.828;9.064;2024-01-30T04:30:01;18.25;;;9.75;;
26113;SDS011;13966;48.828;9.064;2024-01-30T04:32:27;14.98;;;8.30;;
26113;SDS011;13966;48.828;9.064;2024-01-30T04:34:53;13.50;;;9.05;;
26113;SDS011;13966;48.828;9.064;2024-01-30T04:37:19;14.45;;;8.50;;
26113;SDS011;13966;48.828;9.064;2024-01-30T04:39:45;14.60;;;8.68;;
26113;SDS011;13966;48.828;9.064;2024-01-30T04:42:11;13.82;;;8.48;;
26113;SDS011;13966;48.828;9.064;2024-01-30T04:44:36;19.17;;;9.25;;
26113;SDS011;13966;48.828;9.064;2024-01-30T04:47:03;13.10;;;8.07;;
26113;SDS011;13966;48.828;9.064;2024-01-30T04:49:30;12.95;;;8.20;;
26113;SDS011;13966;48.828;9.064;2024-01-30T04:51:57;12.32;;;7.97;;
26113;SDS011;13966;48.828;9.064;2024-01-30T04:54:23;18.60;;;8.27;;
26113;SDS011;13966;48.828;9.064;2024-01-30T04:56:49;15.27;;;8.27;;
26113;SDS011;13966;48.828;9.064;2024-01-30T04:59:15;13.27;;;7.70;;
26113;SDS011;13966;48.828;9.064;2024-01-30T05:01:41;11.07;;;7.70;;
26113;SDS011;13966;48.828;9.064;2024-01-30T05:04:07;15.70;;;8.15;;
26113;SDS011;13966;48.828;9.064;2024-01-30T05:06:33;17.30;;;9.07;;
26113;SDS011;13966;48.828;9.064;2024-01-30T05:08:59;15.55;;;8.43;;
26113;SDS011;13966;48.828;9.064;2024-01-30T05:11:25;15.55;;;8.85;;
26113;SDS011;13966;48.828;9.064;2024-01-30T05:13:51;13.07;;;8.45;;
26113;SDS011;13966;48.828;9.064;2024-01-30T05:16:17;14.27;;;7.78;;
26113;SDS011;13966;48.828;9.064;2024-01-30T05:18:43;13.90;;;8.70;;
26113;SDS011;13966;48.828;9.064;2024-01-30T05:21:10;15.00;;;8.50;;
26113;SDS011;13966;48.828;9.064;2024-01-30T05:23:36;16.80;;;8.55;;
26113;SDS011;13966;48.828;9.064;2024-01-30T05:26:02;12.50;;;8.27;;
26113;SDS011;13966;48.828;9.064;2024-01-30T05:28:31;16.00;;;8.77;;
26113;SDS011;13966;48.828;9.064;2024-01-30T05:30:57;16.92;;;8.57;;
26113;SDS011;13966;48.828;9.064;2024-01-30T05:33:23;14.15;;;8.30;;
26113;SDS011;13966;48.828;9.064;2024-01-30T05:35:49;13.50;;;8.10;;
26113;SDS011;13966;48.828;9.064;2024-01-30T05:38:19;14.05;;;8.23;;
26113;SDS011;13966;48.828;9.064;2024-01-30T05:40:45;16.55;;;10.20;;
26113;SDS011;13966;48.828;9.064;2024-01-30T05:43:11;13.65;;;8.82;;
26113;SDS011;13966;48.828;9.064;2024-01-30T05:45:37;13.68;;;8.38;;
26113;SDS011;13966;48.828;9.064;2024-01-30T05:48:03;12.98;;;8.20;;
26113;SDS011;13966;48.828;9.064;2024-01-30T05:50:29;20.48;;;8.80;;
26113;SDS011;13966;48.828;9.064;2024-01-30T05:52:55;12.98;;;8.88;;
26113;SDS011;13966;48.828;9.064;2024-01-30T05:55:21;12.27;;;8.32;;
26113;SDS011;13966;48.828;9.064;2024-01-30T05:57:47;15.68;;;9.52;;
26113;SDS011;13966;48.828;9.064;2024-01-30T06:00:13;14.73;;;8.70;;
26113;SDS011;13966;48.828;9.064;2024-01-30T06:02:39;17.30;;;8.82;;
26113;SDS011;13966;48.828;9.064;2024-01-30T06:05:05;16.40;;;9.10;;
26113;SDS011;13966;48.828;9.064;2024-01-30T06:07:31;13.40;;;9.27;;
26113;SDS011;13966;48.828;9.064;2024-01-30T06:09:57;18.02;;;9.50;;
26113;SDS011;13966;48.828;9.064;2024-01-30T06:12:25;14.25;;;8.80;;
26113;SDS011;13966;48.828;9.064;2024-01-30T06:14:51;16.70;;;9.35;;
26113;SDS011;13966;48.828;9.064;2024-01-30T06:17:19;16.65;;;9.25;;
26113;SDS011;13966;48.828;9.064;2024-01-30T06:19:45;18.58;;;8.85;;
26113;SDS011;13966;48.828;9.064;2024-01-30T06:22:11;16.55;;;8.70;;
26113;SDS011;13966;48.828;9.064;2024-01-30T06:24:37;18.52;;;9.98;;
26113;SDS011;13966;48.828;9.064;2024-01-30T06:27:03;18.42;;;9.57;;
26113;SDS011;13966;48.828;9.064;2024-01-30T06:29:29;20.00;;;9.65;;
26113;SDS011;13966;48.828;9.064;2024-01-30T06:31:55;15.98;;;9.90;;
26113;SDS011;13966;48.828;9.064;2024-01-30T06:34:22;17.02;;;10.68;;
26113;SDS011;13966;48.828;9.064;2024-01-30T06:36:48;17.73;;;9.90;;
26113;SDS011;13966;48.828;9.064;2024-01-30T06:39:14;19.55;;;10.25;;
26113;SDS011;13966;48.828;9.064;2024-01-30T06:41:40;21.42;;;10.95;;
26113;SDS011;13966;48.828;9.064;2024-01-30T06:44:05;18.38;;;9.88;;
26113;SDS011;13966;48.828;9.064;2024-01-30T06:46:33;17.55;;;10.52;;
26113;SDS011;13966;48.828;9.064;2024-01-30T06:48:59;23.92;;;10.02;;
26113;SDS011;13966;48.828;9.064;2024-01-30T06:51:25;17.33;;;9.88;;
26113;SDS011;13966;48.828;9.064;2024-01-30T06:53:51;20.48;;;10.23;;
26113;SDS011;13966;48.828;9.064;2024-01-30T06:56:17;19.38;;;9.60;;
26113;SDS011;13966;48.828;9.064;2024-01-30T06:58:47;17.95;;;10.38;;
26113;SDS011;13966;48.828;9.064;2024-01-30T07:01:13;20.48;;;10.00;;
26113;SDS011;13966;48.828;9.064;2024-01-30T07:03:39;16.38;;;9.65;;
26113;SDS011;13966;48.828;9.064;2024-01-30T07:06:05;15.82;;;9.15;;
26113;SDS011;13966;48.828;9.064;2024-01-30T07:08:31;18.42;;;9.50;;
26113;SDS011;13966;48.828;9.064;2024-01-30T07:10:57;16.70;;;9.77;;
26113;SDS011;13966;48.828;9.064;2024-01-30T07:13:24;15.77;;;8.95;;
26113;SDS011;13966;48.828;9.064;2024-01-30T07:15:50;18.27;;;10.23;;
26113;SDS011;13966;48.828;9.064;2024-01-30T07:18:16;18.33;;;10.25;;
26113;SDS011;13966;48.828;9.064;2024-01-30T07:20:42;17.73;;;10.88;;
26113;SDS011;13966;48.828;9.064;2024-01-30T07:23:14;18.95;;;10.00;;
26113;SDS011;13966;48.828;9.064;2024-01-30T07:25:41;15.63;;;10.00;;
26113;SDS011;13966;48.828;9.064;2024-01-30T07:28:08;23.83;;;10.80;;
26113;SDS011;13966;48.828;9.064;2024-01-30T07:30:35;27.58;;;10.73;;
26113;SDS011;13966;48.828;9.064;2024-01-30T07:33:01;18.92;;;9.60;;
26113;SDS011;13966;48.828;9.064;2024-01-30T07:35:27;20.50;;;9.57;;
26113;SDS011;13966;48.828;9.064;2024-01-30T07:37:53;22.48;;;10.23;;
26113;SDS011;13966;48.828;9.064;2024-01-30T07:40:19;19.55;;;10.05;;
26113;SDS011;13966;48.828;9.064;2024-01-30T07:42:45;25.58;;;10.43;;
26113;SDS011;13966;48.828;9.064;2024-01-30T07:45:11;17.85;;;10.35;;
26113;SDS011;13966;48.828;9.064;2024-01-30T07:47:37;16.33;;;9.10;;
26113;SDS011;13966;48.828;9.064;2024-01-30T07:50:03;15.80;;;8.55;;
26113;SDS011;13966;48.828;9.064;2024-01-30T07:52:29;19.20;;;10.10;;
26113;SDS011;13966;48.828;9.064;2024-01-30T07:54:55;17.38;;;9.55;;
26113;SDS011;13966;48.828;9.064;2024-01-30T07:57:21;18.73;;;9.75;;
26113;SDS011;13966;48.828;9.064;2024-01-30T07:59:47;19.85;;;10.15;;
26113;SDS011;13966;48.828;9.064;2024-01-30T08:02:13;20.63;;;9.35;;
26113;SDS011;13966;48.828;9.064;2024-01-30T08:04:39;17.35;;;9.35;;
26113;SDS011;13966;48.828;9.064;2024-01-30T08:07:05;17.95;;;8.93;;
26113;SDS011;13966;48.828;9.064;2024-01-30T08:09:31;14.88;;;8.82;;
26113;SDS011;13966;48.828;9.064;2024-01-30T08:11:57;17.50;;;8.80;;
26113;SDS011;13966;48.828;9.064;2024-01-30T08:14:23;15.05;;;8.95;;
26113;SDS011;13966;48.828;9.064;2024-01-30T08:16:50;16.10;;;8.75;;
26113;SDS011;13966;48.828;9.064;2024-01-30T08:19:16;18.90;;;8.52;;
26113;SDS011;13966;48.828;9.064;2024-01-30T08:21:43;18.48;;;8.95;;
26113;SDS011;13966;48.828;9.064;2024-01-30T08:24:09;13.75;;;7.90;;
26113;SDS011;13966;48.828;9.064;2024-01-30T08:26:35;29.55;;;9.07;;
26113;SDS011;13966;48.828;9.064;2024-01-30T08:29:01;17.73;;;8.88;;
26113;SDS011;13966;48.828;9.064;2024-01-30T08:31:27;15.95;;;9.70;;
26113;SDS011;13966;48.828;9.064;2024-01-30T08:33:53;19.50;;;9.70;;
26113;SDS011;13966;48.828;9.064;2024-01-30T08:36:19;15.15;;;9.00;;
26113;SDS011;13966;48.828;9.064;2024-01-30T08:38:45;19.73;;;10.07;;
26113;SDS011;13966;48.828;9.064;2024-01-30T08:41:12;21.52;;;9.55;;
26113;SDS011;13966;48.828;9.064;2024-01-30T08:43:37;16.92;;;9.10;;
26113;SDS011;13966;48.828;9.064;2024-01-30T08:46:03;17.42;;;9.93;;
26113;SDS011;13966;48.828;9.064;2024-01-30T08:48:29;17.60;;;9.10;;
26113;SDS011;13966;48.828;9.064;2024-01-30T08:50:55;22.88;;;9.82;;
26113;SDS011;13966;48.828;9.064;2024-01-30T08:53:21;16.33;;;10.15;;
26113;SDS011;13966;48.828;9.064;2024-01-30T08:55:47;16.45;;;9.90;;
26113;SDS011;13966;48.828;9.064;2024-01-30T08:58:13;16.90;;;9.40;;
26113;SDS011;13966;48.828;9.064;2024-01-30T09:00:40;16.02;;;9.48;;
26113;SDS011;13966;48.828;9.064;2024-01-30T09:03:06;17.38;;;9.90;;
26113;SDS011;13966;48.828;9.064;2024-01-30T09:05:32;19.05;;;9.40;;
26113;SDS011;13966;48.828;9.064;2024-01-30T09:07:58;15.57;;;9.63;;
26113;SDS011;13966;48.828;9.064;2024-01-30T09:10:24;15.20;;;10.02;;
26113;SDS011;13966;48.828;9.064;2024-01-30T09:12:50;15.23;;;9.88;;
26113;SDS011;13966;48.828;9.064;2024-01-30T09:15:16;14.18;;;9.68;;
26113;SDS011;13966;48.828;9.064;2024-01-30T09:17:42;17.48;;;10.40;;
26113;SDS011;13966;48.828;9.064;2024-01-30T09:20:08;16.02;;;9.63;;
26113;SDS011;13966;48.828;9.064;2024-01-30T09:22:34;17.77;;;10.43;;
26113;SDS011;13966;48.828;9.064;2024-01-30T09:25:00;20.15;;;10.48;;
26113;SDS011;13966;48.828;9.064;2024-01-30T09:27:26;15.05;;;9.95;;
26113;SDS011;13966;48.828;9.064;2024-01-30T09:29:52;18.42;;;10.25;;
26113;SDS011;13966;48.828;9.064;2024-01-30T09:32:18;18.27;;;9.60;;
26113;SDS011;13966;48.828;9.064;2024-01-30T09:34:44;25.38;;;11.23;;
26113;SDS011;13966;48.828;9.064;2024-01-30T09:37:10;18.98;;;9.63;;
26113;SDS011;13966;48.828;9.064;2024-01-30T09:39:36;16.23;;;9.70;;
26113;SDS011;13966;48.828;9.064;2024-01-30T09:42:05;14.20;;;9.77;;
26113;SDS011;13966;48.828;9.064;2024-01-30T09:44:36;17.90;;;9.60;;
26113;SDS011;13966;48.828;9.064;2024-01-30T09:47:03;17.40;;;9.95;;
26113;SDS011;13966;48.828;9.064;2024-01-30T09:49:34;15.02;;;9.25;;
26113;SDS011;13966;48.828;9.064;2024-01-30T09:52:01;19.13;;;9.98;;
26113;SDS011;13966;48.828;9.064;2024-01-30T09:54:29;17.15;;;9.73;;
26113;SDS011;13966;48.828;9.064;2024-01-30T09:56:56;15.88;;;9.55;;
26113;SDS011;13966;48.828;9.064;2024-01-30T09:59:22;16.98;;;9.07;;
26113;SDS011;13966;48.828;9.064;2024-01-30T10:01:48;16.00;;;9.77;;
26113;SDS011;13966;48.828;9.064;2024-01-30T10:04:16;22.17;;;9.30;;
26113;SDS011;13966;48.828;9.064;2024-01-30T10:06:42;18.13;;;9.68;;
26113;SDS011;13966;48.828;9.064;2024-01-30T10:09:08;20.73;;;9.32;;
26113;SDS011;13966;48.828;9.064;2024-01-30T10:11:38;21.95;;;9.63;;
26113;SDS011;13966;48.828;9.064;2024-01-30T10:14:04;16.95;;;9.05;;
26113;SDS011;13966;48.828;9.064;2024-01-30T10:16:30;16.23;;;8.70;;
26113;SDS011;13966;48.828;9.064;2024-01-30T10:18:56;20.65;;;8.63;;
26113;SDS011;13966;48.828;9.064;2024-01-30T10:21:22;14.48;;;9.23;;
26113;SDS011;13966;48.828;9.064;2024-01-30T10:23:48;17.42;;;8.68;;
26113;SDS011;13966;48.828;9.064;2024-01-30T10:26:16;18.60;;;8.60;;
26113;SDS011;13966;48.828;9.064;2024-01-30T10:28:42;21.30;;;9.30;;
26113;SDS011;13966;48.828;9.064;2024-01-30T10:31:08;17.58;;;9.25;;
26113;SDS011;13966;48.828;9.064;2024-01-30T10:33:34;17.05;;;8.88;;
26113;SDS011;13966;48.828;9.064;2024-01-30T10:36:01;17.90;;;9.95;;
26113;SDS011;13966;48.828;9.064;2024-01-30T10:38:30;19.05;;;8.40;;
26113;SDS011;13966;48.828;9.064;2024-01-30T10:40:57;16.63;;;8.98;;
26113;SDS011;13966;48.828;9.064;2024-01-30T10:43:24;19.10;;;9.82;;
26113;SDS011;13966;48.828;9.064;2024-01-30T10:45:53;19.00;;;9.68;;
26113;SDS011;13966;48.828;9.064;2024-01-30T10:48:19;20.60;;;9.23;;
26113;SDS011;13966;48.828;9.064;2024-01-30T10:50:47;16.67;;;9.43;;
26113;SDS011;13966;48.828;9.064;2024-01-30T10:53:13;15.27;;;8.88;;
26113;SDS011;13966;48.828;9.064;2024-01-30T10:55:40;14.82;;;9.40;;
26113;SDS011;13966;48.828;9.064;2024-01-30T10:58:07;23.80;;;10.30;;
26113;SDS011;13966;48.828;9.064;2024-01-30T11:00:35;18.98;;;9.32;;
26113;SDS011;13966;48.828;9.064;2024-01-30T11:03:01;22.50;;;9.15;;
26113;SDS011;13966;48.828;9.064;2024-01-30T11:05:27;21.65;;;8.98;;
26113;SDS011;13966;48.828;9.064;2024-01-30T11:07:54;19.00;;;8.85;;
26113;SDS011;13966;48.828;9.064;2024-01-30T11:10:20;21.30;;;8.30;;
26113;SDS011;13966;48.828;9.064;2024-01-30T11:12:46;17.55;;;8.90;;
26113;SDS011;13966;48.828;9.064;2024-01-30T11:15:13;20.40;;;10.98;;
26113;SDS011;13966;48.828;9.064;2024-01-30T11:18:00;35.15;;;11.82;;
26113;SDS011;13966;48.828;9.064;2024-01-30T11:20:26;26.02;;;11.38;;
26113;SDS011;13966;48.828;9.064;2024-01-30T11:22:55;20.40;;;10.50;;
26113;SDS011;13966;48.828;9.064;2024-01-30T11:25:22;16.33;;;9.55;;
26113;SDS011;13966;48.828;9.064;2024-01-30T11:27:51;19.00;;;9.23;;
26113;SDS011;13966;48.828;9.064;2024-01-30T11:33:09;16.42;;;8.55;;
26113;SDS011;13966;48.828;9.064;2024-01-30T11:38:06;21.42;;;8.15;;
26113;SDS011;13966;48.828;9.064;2024-01-30T11:40:33;10.93;;;7.82;;
26113;SDS011;13966;48.828;9.064;2024-01-30T11:43:00;10.15;;;6.43;;
26113;SDS011;13966;48.828;9.064;2024-01-30T11:45:26;14.07;;;7.40;;
26113;SDS011;13966;48.828;9.064;2024-01-30T11:47:53;13.95;;;6.43;;
26113;SDS011;13966;48.828;9.064;2024-01-30T11:50:19;10.63;;;6.70;;
26113;SDS011;13966;48.828;9.064;2024-01-30T11:52:45;10.00;;;6.00;;
26113;SDS011;13966;48.828;9.064;2024-01-30T11:55:12;15.30;;;6.00;;
26113;SDS011;13966;48.828;9.064;2024-01-30T11:57:38;15.73;;;6.13;;
26113;SDS011;13966;48.828;9.064;2024-01-30T12:00:05;11.75;;;5.93;;
26113;SDS011;13966;48.828;9.064;2024-01-30T12:02:38;13.35;;;6.30;;
26113;SDS011;13966;48.828;9.064;2024-01-30T12:05:04;13.38;;;6.32;;
26113;SDS011;13966;48.828;9.064;2024-01-30T12:07:30;13.60;;;6.00;;
26113;SDS011;13966;48.828;9.064;2024-01-30T12:09:56;10.20;;;6.28;;
26113;SDS011;13966;48.828;9.064;2024-01-30T12:12:23;13.48;;;5.80;;
26113;SDS011;13966;48.828;9.064;2024-01-30T12:14:50;14.27;;;5.97;;
26113;SDS011;13966;48.828;9.064;2024-01-30T12:17:27;12.35;;;5.85;;
26113;SDS011;13966;48.828;9.064;2024-01-30T12:20:02;9.15;;;5.45;;
26113;SDS011;13966;48.828;9.064;2024-01-30T12:22:28;11.60;;;5.43;;
26113;SDS011;13966;48.828;9.064;2024-01-30T12:24:54;13.70;;;4.63;;
26113;SDS011;13966;48.828;9.064;2024-01-30T12:27:20;7.32;;;4.05;;
26113;SDS011;13966;48.828;9.064;2024-01-30T12:29:46;7.53;;;3.92;;
26113;SDS011;13966;48.828;9.064;2024-01-30T12:32:15;7.63;;;3.50;;
26113;SDS011;13966;48.828;9.064;2024-01-30T12:34:42;9.55;;;3.70;;
26113;SDS011;13966;48.828;9.064;2024-01-30T12:37:08;9.82;;;3.85;;
26113;SDS011;13966;48.828;9.064;2024-01-30T12:39:34;9.38;;;4.13;;
26113;SDS011;13966;48.828;9.064;2024-01-30T12:42:01;9.10;;;3.83;;
26113;SDS011;13966;48.828;9.064;2024-01-30T12:44:28;9.43;;;4.68;;
26113;SDS011;13966;48.828;9.064;2024-01-30T12:46:54;6.50;;;3.53;;
26113;SDS011;13966;48.828;9.064;2024-01-30T12:49:20;7.47;;;4.03;;
26113;SDS011;13966;48.828;9.064;2024-01-30T12:51:46;11.25;;;3.97;;
26113;SDS011;13966;48.828;9.064;2024-01-30T12:54:12;7.13;;;3.78;;
26113;SDS011;13966;48.828;9.064;2024-01-30T12:56:38;7.75;;;3.75;;
26113;SDS011;13966;48.828;9.064;2024-01-30T12:59:04;6.65;;;3.50;;
26113;SDS011;13966;48.828;9.064;2024-01-30T13:01:30;12.95;;;3.50;;
26113;SDS011;13966;48.828;9.064;2024-01-30T13:03:56;14.82;;;3.67;;
26113;SDS011;13966;48.828;9.064;2024-01-30T13:06:23;11.07;;;3.50;;
26113;SDS011;13966;48.828;9.064;2024-01-30T13:08:49;9.77;;;4.22;;
26113;SDS011;13966;48.828;9.064;2024-01-30T13:11:15;11.50;;;4.78;;
26113;SDS011;13966;48.828;9.064;2024-01-30T13:13:41;8.57;;;4.30;;
26113;SDS011;13966;48.828;9.064;2024-01-30T13:16:07;7.07;;;4.68;;
26113;SDS011;13966;48.828;9.064;2024-01-30T13:18:33;9.10;;;4.82;;
26113;SDS011;13966;48.828;9.064;2024-01-30T13:20:59;11.88;;;4.95;;
26113;SDS011;13966;48.828;9.064;2024-01-30T13:23:25;10.65;;;4.60;;
26113;SDS011;13966;48.828;9.064;2024-01-30T13:25:51;9.55;;;3.83;;
26113;SDS011;13966;48.828;9.064;2024-01-30T13:28:18;6.80;;;4.28;;
26113;SDS011;13966;48.828;9.064;2024-01-30T13:30:45;7.90;;;4.60;;
26113;SDS011;13966;48.828;9.064;2024-01-30T13:33:11;9.30;;;5.38;;
26113;SDS011;13966;48.828;9.064;2024-01-30T13:35:37;11.18;;;5.40;;
26113;SDS011;13966;48.828;9.064;2024-01-30T13:38:03;11.55;;;5.40;;
26113;SDS011;13966;48.828;9.064;2024-01-30T13:40:29;6.97;;;4.50;;
26113;SDS011;13966;48.828;9.064;2024-01-30T13:42:55;8.43;;;4.85;;
26113;SDS011;13966;48.828;9.064;2024-01-30T13:45:21;11.32;;;4.85;;
26113;SDS011;13966;48.828;9.064;2024-01-30T13:47:47;9.30;;;4.32;;
26113;SDS011;13966;48.828;9.064;2024-01-30T13:50:13;8.52;;;4.22;;
26113;SDS011;13966;48.828;9.064;2024-01-30T13:52:41;11.70;;;5.00;;
26113;SDS011;13966;48.828;9.064;2024-01-30T13:55:08;8.15;;;4.57;;
26113;SDS011;13966;48.828;9.064;2024-01-30T13:57:35;10.23;;;4.35;;
26113;SDS011;13966;48.828;9.064;2024-01-30T14:00:01;8.23;;;4.68;;
26113;SDS011;13966;48.828;9.064;2024-01-30T14:02:30;11.23;;;4.28;;
26113;SDS011;13966;48.828;9.064;2024-01-30T14:04:56;10.15;;;4.40;;
26113;SDS011;13966;48.828;9.064;2024-01-30T14:07:22;15.50;;;5.53;;
26113;SDS011;13966;48.828;9.064;2024-01-30T14:09:48;8.63;;;5.45;;
26113;SDS011;13966;48.828;9.064;2024-01-30T14:12:14;14.13;;;7.03;;
26113;SDS011;13966;48.828;9.064;2024-01-30T14:14:40;11.77;;;7.18;;
26113;SDS011;13966;48.828;9.064;2024-01-30T14:17:06;11.10;;;7.57;;
26113;SDS011;13966;48.828;9.064;2024-01-30T14:19:35;15.50;;;8.07;;
26113;SDS011;13966;48.828;9.064;2024-01-30T14:22:01;17.85;;;7.95;;
26113;SDS011;13966;48.828;9.064;2024-01-30T14:24:27;13.95;;;8.57;;
26113;SDS011;13966;48.828;9.064;2024-01-30T14:26:53;15.18;;;8.48;;
26113;SDS011;13966;48.828;9.064;2024-01-30T14:29:19;23.70;;;8.50;;
26113;SDS011;13966;48.828;9.064;2024-01-30T14:31:46;13.75;;;8.85;;
26113;SDS011;13966;48.828;9.064;2024-01-30T14:34:12;14.80;;;8.90;;